Terminal Aerodrome Forecast
Issued by NWS

Home | Current Version | Previous Version | Text Only | Print | Product List | Glossary On
Versions: 1 2 3 4 5 6 7 8 9 10 11 12 13 14 15 16
000
FTUS46 KMTR 230300 AAA
TAFOAK
TAF AMD
KOAK 230329Z 2303/2406 26012KT P6SM OVC012
     FM230800 26005KT P6SM OVC008
     FM231900 30010KT P6SM FEW015
     FM232100 30016KT P6SM FEW015
     FM240400 30009KT P6SM FEW010=

USA.gov is the U.S. government's official web portal to all federal, state and local government web resources and services.